KBED/BED METAR and TAF weather

Enter ICAO airport designator
Station Type Date Time Source
KBED METAR 2022/01/19 20:51 UTC NOAA

KBED 192051Z 21013G22KT 10SM SCT110 08/M01 A2987 RMK AO2 SLPNO T00781011 58040 $


Station Type Date Time Source
KBED Decoded METAR 2022/01/19 20:51 UTC NOAA

BEDFORD HANSCOM FIELD, MA, United States (KBED) 42-28N 071-18W 50M
Jan 19, 2022 - 03:51 PM EST / 2022.01.19 2051 UTC
Wind: from the SSW (210 degrees) at 15 MPH (13 KT) gusting to 25 MPH (22 KT):0
Visibility: 10 mile(s):0
Sky conditions: partly cloudy
Temperature: 46.0 F (7.8 C)
Dew Point: 30.0 F (-1.1 C)
Relative Humidity: 53%
Pressure (altimeter): 29.87 in. Hg (1011 hPa)
Pressure tendency: 0.12 inches (4.0 hPa) lower than three hours ago
ob: KBED 192051Z 21013G22KT 10SM SCT110 08/M01 A2987 RMK AO2 SLPNO T00781011 58040
cycle: 21

Station Type Date Time Source
KBED TAF 2022/01/19 18:34 UTC NOAA

TAF KBED 191732Z 1918/2018 21016G28KT P6SM BKN250
FM200000 22010KT P6SM BKN250
FM200700 24005KT P6SM BKN060
FM201000 27005KT 3SM -SN BR OVC035
FM201400 29007KT 6SM -SN OVC045

Example: see airport list